EWG6PR EDDS-LOWW
Flight info
| Callsign | EWG6PR |
|---|---|
| Flight time | 0h 49m |
| Altitude | 31000 |
| Route | ABTAL4H/07 ABTAL L173 RIXED Y161 RIDAR Z98 MIQ L605 BIBAG Q104 AKIMA DCT MASUR MASUR3W |
| Aircraft | A320/M-SDE3FGHIRWY/LB1 |
Departure
| Time | 2026-04-26 17:27 |
|---|---|
| Airport | Stuttgart Airport (EDDS) |
Arrival
| Time | 2026-04-26 18:17 |
|---|---|
| Airport | Vienna International Airport (LOWW) |
| Time | Latitude | Longitude | Altitude | Speed | Heading |
|---|---|---|---|---|---|
| 2026-04-26 16:50 | 48.68882 | 9.19360 | 1315 ft | 0 kts | 343° |
| 2026-04-26 17:20 | 48.68880 | 9.19361 | 1315 ft | 2 kts | 343° |
| 2026-04-26 17:20 | 48.68872 | 9.19365 | 1315 ft | 4 kts | 345° |
| 2026-04-26 17:20 | 48.68829 | 9.19377 | 1314 ft | 4 kts | 9° |
| 2026-04-26 17:20 | 48.68806 | 9.19363 | 1314 ft | 4 kts | 55° |
| 2026-04-26 17:21 | 48.68800 | 9.19345 | 1314 ft | 1 kts | 74° |
| 2026-04-26 17:21 | 48.68800 | 9.19343 | 1314 ft | 0 kts | 74° |
| 2026-04-26 17:23 | 48.68814 | 9.19421 | 1313 ft | 16 kts | 74° |
| 2026-04-26 17:24 | 48.68850 | 9.19612 | 1309 ft | 21 kts | 73° |
| 2026-04-26 17:24 | 48.68887 | 9.19805 | 1304 ft | 16 kts | 72° |
| 2026-04-26 17:24 | 48.68852 | 9.19884 | 1300 ft | 8 kts | 187° |
| 2026-04-26 17:24 | 48.68795 | 9.19936 | 1295 ft | 11 kts | 152° |
| 2026-04-26 17:25 | 48.68719 | 9.19972 | 1291 ft | 6 kts | 166° |
| 2026-04-26 17:25 | 48.68664 | 9.19994 | 1287 ft | 13 kts | 164° |
| 2026-04-26 17:25 | 48.68590 | 9.20103 | 1283 ft | 15 kts | 80° |
| 2026-04-26 17:25 | 48.68595 | 9.20125 | 1282 ft | 1 kts | 70° |
| 2026-04-26 17:26 | 48.68596 | 9.20132 | 1282 ft | 1 kts | 71° |
| 2026-04-26 17:26 | 48.68612 | 9.20217 | 1280 ft | 30 kts | 73° |
| 2026-04-26 17:26 | 48.68743 | 9.20905 | 1268 ft | 103 kts | 74° |
| 2026-04-26 17:26 | 48.68999 | 9.22237 | 1239 ft | 158 kts | 72° |
| 2026-04-26 17:27 | 48.69343 | 9.23958 | 1620 ft | 174 kts | 72° |
| 2026-04-26 17:27 | 48.69650 | 9.25747 | 2317 ft | 176 kts | 72° |
| 2026-04-26 17:27 | 48.69996 | 9.27583 | 2825 ft | 190 kts | 72° |
| 2026-04-26 17:27 | 48.70390 | 9.29613 | 3067 ft | 212 kts | 72° |
| 2026-04-26 17:28 | 48.70833 | 9.31887 | 3403 ft | 238 kts | 72° |
| 2026-04-26 17:28 | 48.71125 | 9.34457 | 3968 ft | 255 kts | 83° |
| 2026-04-26 17:28 | 48.71164 | 9.37187 | 4686 ft | 265 kts | 91° |
| 2026-04-26 17:28 | 48.71022 | 9.39989 | 5014 ft | 268 kts | 94° |
| 2026-04-26 17:29 | 48.70855 | 9.42806 | 5266 ft | 269 kts | 94° |
| 2026-04-26 17:29 | 48.70798 | 9.43724 | 5348 ft | 270 kts | 94° |
| 2026-04-26 17:29 | 48.70514 | 9.48532 | 5888 ft | 286 kts | 94° |
| 2026-04-26 17:29 | 48.70338 | 9.51665 | 6283 ft | 310 kts | 94° |
| 2026-04-26 17:30 | 48.70152 | 9.54985 | 6669 ft | 322 kts | 94° |
| 2026-04-26 17:30 | 48.69959 | 9.58386 | 7029 ft | 326 kts | 94° |
| 2026-04-26 17:30 | 48.69770 | 9.61810 | 7392 ft | 328 kts | 94° |
| 2026-04-26 17:30 | 48.69667 | 9.64102 | 7638 ft | 330 kts | 90° |
| 2026-04-26 17:31 | 48.70018 | 9.67554 | 8246 ft | 335 kts | 73° |
| 2026-04-26 17:31 | 48.70638 | 9.70970 | 9106 ft | 338 kts | 74° |
| 2026-04-26 17:31 | 48.71250 | 9.74434 | 9920 ft | 343 kts | 74° |
| 2026-04-26 17:31 | 48.71864 | 9.77953 | 10671 ft | 348 kts | 74° |
| 2026-04-26 17:32 | 48.72701 | 9.82738 | 11413 ft | 361 kts | 74° |
| 2026-04-26 17:32 | 48.73351 | 9.86432 | 12094 ft | 365 kts | 74° |
| 2026-04-26 17:32 | 48.73796 | 9.88957 | 12569 ft | 368 kts | 74° |
| 2026-04-26 17:32 | 48.74456 | 9.92714 | 13271 ft | 372 kts | 74° |
| 2026-04-26 17:33 | 48.75125 | 9.96524 | 13973 ft | 376 kts | 74° |
| 2026-04-26 17:33 | 48.75798 | 10.00368 | 14607 ft | 379 kts | 74° |
| 2026-04-26 17:33 | 48.76472 | 10.04237 | 15238 ft | 382 kts | 74° |
| 2026-04-26 17:34 | 48.77822 | 10.12024 | 16456 ft | 389 kts | 75° |
| 2026-04-26 17:34 | 48.78524 | 10.16087 | 17054 ft | 393 kts | 75° |
| 2026-04-26 17:34 | 48.79219 | 10.20108 | 17668 ft | 396 kts | 75° |
| 2026-04-26 17:34 | 48.79907 | 10.24109 | 18248 ft | 399 kts | 75° |
| 2026-04-26 17:35 | 48.80609 | 10.28201 | 18789 ft | 402 kts | 75° |
| 2026-04-26 17:35 | 48.81280 | 10.32344 | 19260 ft | 406 kts | 79° |
| 2026-04-26 17:35 | 48.81499 | 10.36627 | 19724 ft | 410 kts | 92° |
| 2026-04-26 17:35 | 48.81121 | 10.40925 | 20190 ft | 414 kts | 104° |
| 2026-04-26 17:36 | 48.80139 | 10.45033 | 20654 ft | 416 kts | 117° |
| 2026-04-26 17:36 | 48.78591 | 10.48742 | 21104 ft | 418 kts | 130° |
| 2026-04-26 17:36 | 48.76623 | 10.51998 | 21543 ft | 420 kts | 135° |
| 2026-04-26 17:36 | 48.74596 | 10.55214 | 21992 ft | 423 kts | 135° |
| 2026-04-26 17:37 | 48.72557 | 10.58452 | 22437 ft | 427 kts | 135° |
| 2026-04-26 17:37 | 48.70507 | 10.61718 | 22894 ft | 430 kts | 135° |
| 2026-04-26 17:37 | 48.68439 | 10.65017 | 23316 ft | 433 kts | 135° |
| 2026-04-26 17:38 | 48.64260 | 10.71674 | 24103 ft | 439 kts | 135° |
| 2026-04-26 17:38 | 48.62232 | 10.75139 | 24457 ft | 443 kts | 128° |
| 2026-04-26 17:38 | 48.60577 | 10.79089 | 24805 ft | 447 kts | 118° |
| 2026-04-26 17:38 | 48.59385 | 10.83439 | 25157 ft | 450 kts | 108° |
| 2026-04-26 17:39 | 48.58710 | 10.88064 | 25501 ft | 453 kts | 97° |
| 2026-04-26 17:39 | 48.58515 | 10.92835 | 25826 ft | 456 kts | 92° |
| 2026-04-26 17:39 | 48.58394 | 10.97635 | 26158 ft | 459 kts | 92° |
| 2026-04-26 17:39 | 48.58263 | 11.02459 | 26496 ft | 461 kts | 93° |
| 2026-04-26 17:40 | 48.58124 | 11.07305 | 26833 ft | 463 kts | 93° |
| 2026-04-26 17:40 | 48.58028 | 11.10525 | 27054 ft | 465 kts | 93° |
| 2026-04-26 17:40 | 48.57838 | 11.17064 | 27492 ft | 468 kts | 92° |
| 2026-04-26 17:40 | 48.57728 | 11.21988 | 27818 ft | 470 kts | 92° |
| 2026-04-26 17:41 | 48.57646 | 11.26814 | 28140 ft | 472 kts | 92° |
| 2026-04-26 17:41 | 48.57573 | 11.31777 | 28435 ft | 474 kts | 92° |
| 2026-04-26 17:41 | 48.57498 | 11.36766 | 28696 ft | 477 kts | 92° |
| 2026-04-26 17:41 | 48.57415 | 11.41794 | 28949 ft | 480 kts | 92° |
| 2026-04-26 17:42 | 48.57321 | 11.46834 | 29228 ft | 482 kts | 92° |
| 2026-04-26 17:42 | 48.57216 | 11.51902 | 29504 ft | 484 kts | 93° |
| 2026-04-26 17:42 | 48.57098 | 11.56992 | 29777 ft | 486 kts | 94° |
| 2026-04-26 17:42 | 48.56699 | 11.62047 | 30097 ft | 485 kts | 103° |
| 2026-04-26 17:43 | 48.55976 | 11.67023 | 30458 ft | 484 kts | 104° |
| 2026-04-26 17:43 | 48.55248 | 11.71977 | 30671 ft | 484 kts | 104° |
| 2026-04-26 17:43 | 48.54525 | 11.76926 | 30862 ft | 483 kts | 104° |
| 2026-04-26 17:43 | 48.53812 | 11.81820 | 31059 ft | 484 kts | 104° |
| 2026-04-26 17:44 | 48.53088 | 11.86772 | 31196 ft | 483 kts | 104° |
| 2026-04-26 17:44 | 48.52351 | 11.91766 | 31226 ft | 480 kts | 104° |
| 2026-04-26 17:44 | 48.50895 | 12.01570 | 31220 ft | 479 kts | 104° |
| 2026-04-26 17:45 | 48.49450 | 12.11297 | 31224 ft | 478 kts | 104° |
| 2026-04-26 17:45 | 48.47982 | 12.21087 | 31221 ft | 479 kts | 104° |
| 2026-04-26 17:46 | 48.46496 | 12.30876 | 31221 ft | 480 kts | 104° |
| 2026-04-26 17:46 | 48.45002 | 12.40671 | 31221 ft | 479 kts | 104° |
| 2026-04-26 17:47 | 48.43761 | 12.48791 | 31221 ft | 479 kts | 104° |
| 2026-04-26 17:47 | 48.42006 | 12.60223 | 31212 ft | 479 kts | 105° |
| 2026-04-26 17:48 | 48.40491 | 12.69988 | 31206 ft | 479 kts | 104° |
| 2026-04-26 17:48 | 48.39852 | 12.79327 | 31200 ft | 481 kts | 88° |
| 2026-04-26 17:49 | 48.40176 | 12.89396 | 31199 ft | 481 kts | 88° |
| 2026-04-26 17:49 | 48.40466 | 12.99450 | 31195 ft | 481 kts | 88° |
| 2026-04-26 17:50 | 48.40739 | 13.09514 | 31191 ft | 481 kts | 88° |
| 2026-04-26 17:50 | 48.41016 | 13.19575 | 31197 ft | 481 kts | 88° |
| 2026-04-26 17:51 | 48.41287 | 13.29626 | 31194 ft | 481 kts | 88° |
| 2026-04-26 17:51 | 48.41700 | 13.39702 | 31195 ft | 482 kts | 85° |
| 2026-04-26 17:52 | 48.42362 | 13.49739 | 31190 ft | 482 kts | 83° |
| 2026-04-26 17:52 | 48.43027 | 13.59756 | 31185 ft | 482 kts | 84° |
| 2026-04-26 17:53 | 48.43603 | 13.69739 | 31188 ft | 482 kts | 84° |
| 2026-04-26 17:54 | 48.44401 | 13.84837 | 31197 ft | 482 kts | 84° |
| 2026-04-26 17:54 | 48.44944 | 13.94891 | 31197 ft | 482 kts | 84° |
| 2026-04-26 17:55 | 48.45489 | 14.04947 | 31203 ft | 482 kts | 84° |
| 2026-04-26 17:55 | 48.46027 | 14.15050 | 30666 ft | 484 kts | 84° |
| 2026-04-26 17:55 | 48.46288 | 14.20103 | 30147 ft | 483 kts | 85° |
| 2026-04-26 17:56 | 48.46546 | 14.25120 | 29546 ft | 479 kts | 85° |
| 2026-04-26 17:56 | 48.47051 | 14.35040 | 28400 ft | 470 kts | 85° |
| 2026-04-26 17:57 | 48.47541 | 14.44748 | 27296 ft | 459 kts | 85° |
| 2026-04-26 17:57 | 48.47778 | 14.49515 | 26762 ft | 454 kts | 85° |
| 2026-04-26 17:57 | 48.48011 | 14.54244 | 26229 ft | 450 kts | 85° |
| 2026-04-26 17:57 | 48.48239 | 14.58928 | 25717 ft | 446 kts | 85° |
| 2026-04-26 17:58 | 48.48747 | 14.72715 | 24203 ft | 434 kts | 95° |
| 2026-04-26 17:59 | 48.46882 | 14.81195 | 23136 ft | 425 kts | 116° |
| 2026-04-26 17:59 | 48.45614 | 14.85199 | 22570 ft | 423 kts | 116° |
| 2026-04-26 17:59 | 48.44342 | 14.89182 | 22005 ft | 421 kts | 116° |
| 2026-04-26 17:59 | 48.43070 | 14.93136 | 21467 ft | 418 kts | 116° |
| 2026-04-26 18:00 | 48.41806 | 14.97063 | 20924 ft | 415 kts | 116° |
| 2026-04-26 18:00 | 48.40549 | 15.00967 | 20442 ft | 413 kts | 116° |
| 2026-04-26 18:00 | 48.39305 | 15.04836 | 19944 ft | 410 kts | 116° |
| 2026-04-26 18:00 | 48.38065 | 15.08693 | 19459 ft | 408 kts | 116° |
| 2026-04-26 18:01 | 48.36832 | 15.12521 | 18981 ft | 406 kts | 116° |
| 2026-04-26 18:01 | 48.35604 | 15.16329 | 18503 ft | 403 kts | 116° |
| 2026-04-26 18:01 | 48.34385 | 15.20111 | 17978 ft | 401 kts | 115° |
| 2026-04-26 18:01 | 48.33169 | 15.23873 | 17442 ft | 399 kts | 115° |
| 2026-04-26 18:02 | 48.31961 | 15.27604 | 17002 ft | 396 kts | 115° |
| 2026-04-26 18:02 | 48.31166 | 15.30063 | 16745 ft | 395 kts | 115° |
| 2026-04-26 18:02 | 48.29566 | 15.35011 | 16254 ft | 392 kts | 115° |
| 2026-04-26 18:02 | 48.28372 | 15.38687 | 15905 ft | 391 kts | 115° |
| 2026-04-26 18:03 | 48.27178 | 15.42346 | 15561 ft | 390 kts | 115° |
| 2026-04-26 18:03 | 48.25985 | 15.45991 | 15226 ft | 388 kts | 115° |
| 2026-04-26 18:03 | 48.24797 | 15.49620 | 14867 ft | 386 kts | 115° |
| 2026-04-26 18:03 | 48.23615 | 15.53223 | 14533 ft | 384 kts | 115° |
| 2026-04-26 18:04 | 48.22438 | 15.56813 | 14204 ft | 382 kts | 115° |
| 2026-04-26 18:04 | 48.21266 | 15.60385 | 13850 ft | 381 kts | 115° |
| 2026-04-26 18:04 | 48.20115 | 15.63891 | 13486 ft | 379 kts | 115° |
| 2026-04-26 18:05 | 48.17785 | 15.70989 | 12752 ft | 375 kts | 115° |
| 2026-04-26 18:05 | 48.16634 | 15.74484 | 12402 ft | 373 kts | 116° |
| 2026-04-26 18:05 | 48.15485 | 15.77962 | 12045 ft | 371 kts | 116° |
| 2026-04-26 18:05 | 48.14338 | 15.81428 | 11691 ft | 370 kts | 116° |
| 2026-04-26 18:06 | 48.13199 | 15.84865 | 11334 ft | 368 kts | 116° |
| 2026-04-26 18:06 | 48.12062 | 15.88285 | 11007 ft | 366 kts | 116° |
| 2026-04-26 18:06 | 48.10942 | 15.91645 | 10666 ft | 365 kts | 116° |
| 2026-04-26 18:06 | 48.09814 | 15.95031 | 10322 ft | 363 kts | 116° |
| 2026-04-26 18:07 | 48.08691 | 15.98402 | 9991 ft | 361 kts | 116° |
| 2026-04-26 18:07 | 48.07579 | 16.01747 | 9615 ft | 359 kts | 116° |
| 2026-04-26 18:07 | 48.06472 | 16.05078 | 9237 ft | 357 kts | 116° |
| 2026-04-26 18:07 | 48.05728 | 16.07313 | 8995 ft | 353 kts | 116° |
| 2026-04-26 18:08 | 48.04294 | 16.11594 | 8590 ft | 344 kts | 116° |
| 2026-04-26 18:08 | 48.03227 | 16.14777 | 8316 ft | 342 kts | 116° |
| 2026-04-26 18:08 | 48.02162 | 16.17946 | 8046 ft | 340 kts | 116° |
| 2026-04-26 18:08 | 48.01104 | 16.21093 | 7774 ft | 339 kts | 117° |
| 2026-04-26 18:09 | 48.00049 | 16.24232 | 7498 ft | 337 kts | 117° |
| 2026-04-26 18:09 | 47.99003 | 16.27345 | 7230 ft | 335 kts | 117° |
| 2026-04-26 18:09 | 47.97960 | 16.30440 | 6961 ft | 333 kts | 117° |
| 2026-04-26 18:09 | 47.96917 | 16.33526 | 6683 ft | 332 kts | 116° |
| 2026-04-26 18:10 | 47.95877 | 16.36604 | 6375 ft | 332 kts | 116° |
| 2026-04-26 18:10 | 47.95026 | 16.39787 | 6051 ft | 328 kts | 106° |
| 2026-04-26 18:10 | 47.94334 | 16.43010 | 5749 ft | 324 kts | 105° |
| 2026-04-26 18:10 | 47.93656 | 16.46195 | 5446 ft | 320 kts | 105° |
| 2026-04-26 18:11 | 47.92979 | 16.49328 | 5132 ft | 316 kts | 105° |
| 2026-04-26 18:11 | 47.92304 | 16.52406 | 4830 ft | 307 kts | 105° |
| 2026-04-26 18:11 | 47.91642 | 16.55388 | 4555 ft | 299 kts | 105° |
| 2026-04-26 18:11 | 47.91058 | 16.58258 | 4301 ft | 287 kts | 96° |
| 2026-04-26 18:12 | 47.91106 | 16.61118 | 4096 ft | 269 kts | 77° |
| 2026-04-26 18:12 | 47.91479 | 16.63774 | 3890 ft | 254 kts | 64° |
| 2026-04-26 18:12 | 47.92494 | 16.65748 | 3686 ft | 235 kts | 29° |
| 2026-04-26 18:12 | 47.94013 | 16.66263 | 3513 ft | 222 kts | 349° |
| 2026-04-26 18:13 | 47.95337 | 16.65248 | 3371 ft | 214 kts | 324° |
| 2026-04-26 18:13 | 47.96604 | 16.64159 | 3116 ft | 209 kts | 347° |
| 2026-04-26 18:13 | 47.97995 | 16.63685 | 2853 ft | 200 kts | 347° |
| 2026-04-26 18:13 | 47.98447 | 16.63509 | 2775 ft | 197 kts | 346° |
| 2026-04-26 18:14 | 48.00550 | 16.62635 | 2356 ft | 178 kts | 346° |
| 2026-04-26 18:14 | 48.01697 | 16.62152 | 2119 ft | 164 kts | 346° |
| 2026-04-26 18:14 | 48.02759 | 16.61706 | 1893 ft | 152 kts | 347° |
| 2026-04-26 18:14 | 48.03722 | 16.61301 | 1696 ft | 139 kts | 346° |
| 2026-04-26 18:15 | 48.04639 | 16.60914 | 1486 ft | 135 kts | 345° |
| 2026-04-26 18:15 | 48.05528 | 16.60537 | 1312 ft | 131 kts | 346° |
| 2026-04-26 18:15 | 48.06399 | 16.60184 | 1112 ft | 131 kts | 347° |
| 2026-04-26 18:15 | 48.07264 | 16.59808 | 988 ft | 127 kts | 344° |
| 2026-04-26 18:16 | 48.08110 | 16.59449 | 816 ft | 125 kts | 345° |
| 2026-04-26 18:16 | 48.09661 | 16.58802 | 623 ft | 84 kts | 343° |
| 2026-04-26 18:16 | 48.10080 | 16.58622 | 613 ft | 51 kts | 344° |
| 2026-04-26 18:17 | 48.10355 | 16.58483 | 619 ft | 35 kts | 323° |
| 2026-04-26 18:17 | 48.10478 | 16.58219 | 615 ft | 7 kts | 299° |
| 2026-04-26 18:17 | 48.10478 | 16.58218 | 614 ft | 0 kts | 299° |
| 2026-04-26 18:17 | 48.10515 | 16.58158 | 618 ft | 16 kts | 331° |
| 2026-04-26 18:18 | 48.10601 | 16.58122 | 623 ft | 20 kts | 344° |
| 2026-04-26 18:18 | 48.10739 | 16.58063 | 616 ft | 21 kts | 344° |
| 2026-04-26 18:18 | 48.10890 | 16.57999 | 615 ft | 24 kts | 343° |
| 2026-04-26 18:18 | 48.11046 | 16.57933 | 618 ft | 17 kts | 345° |
| 2026-04-26 18:19 | 48.11126 | 16.57811 | 620 ft | 19 kts | 295° |
| 2026-04-26 18:19 | 48.11205 | 16.57570 | 612 ft | 33 kts | 296° |
| 2026-04-26 18:19 | 48.11306 | 16.57260 | 613 ft | 33 kts | 296° |
| 2026-04-26 18:19 | 48.11407 | 16.56951 | 616 ft | 33 kts | 295° |
| 2026-04-26 18:20 | 48.11507 | 16.56645 | 622 ft | 33 kts | 297° |
| 2026-04-26 18:20 | 48.11606 | 16.56340 | 621 ft | 32 kts | 295° |
| 2026-04-26 18:20 | 48.11705 | 16.56037 | 614 ft | 32 kts | 296° |
| 2026-04-26 18:20 | 48.11770 | 16.55837 | 621 ft | 28 kts | 295° |
| 2026-04-26 18:21 | 48.11858 | 16.55660 | 609 ft | 6 kts | 34° |
| 2026-04-26 18:21 | 48.11894 | 16.55694 | 613 ft | 6 kts | 23° |
| 2026-04-26 18:21 | 48.11903 | 16.55700 | 611 ft | 0 kts | 24° |